createdAt,value
2023-02-24T00:02:20.219Z,13.90
2023-02-24T00:04:51.829Z,14.93
2023-02-24T00:07:21.372Z,15.10
2023-02-24T00:09:49.316Z,14.00
2023-02-24T00:12:18.818Z,15.07
2023-02-24T00:14:47.010Z,16.17
2023-02-24T00:17:15.597Z,15.30
2023-02-24T00:19:43.977Z,15.80
2023-02-24T00:22:12.744Z,14.63
2023-02-24T00:24:42.144Z,16.00
2023-02-24T00:27:11.810Z,14.47
2023-02-24T00:29:41.934Z,15.90
2023-02-24T00:32:12.634Z,15.13
2023-02-24T00:34:41.031Z,16.80
2023-02-24T00:37:09.356Z,15.68
2023-02-24T00:39:41.190Z,16.63
2023-02-24T00:42:12.315Z,17.53
2023-02-24T00:44:41.827Z,15.47
2023-02-24T00:47:11.845Z,18.10
2023-02-24T00:49:42.255Z,18.60
2023-02-24T00:52:13.872Z,16.70
2023-02-24T00:54:42.317Z,17.57
2023-02-24T00:57:12.142Z,16.83
2023-02-24T00:59:40.752Z,17.90
2023-02-24T01:02:08.987Z,19.15
2023-02-24T01:04:38.668Z,20.10
2023-02-24T01:07:10.886Z,18.98
2023-02-24T01:09:41.218Z,19.45
2023-02-24T01:12:29.100Z,19.25
2023-02-24T01:14:56.994Z,20.10
2023-02-24T01:17:25.459Z,20.63
2023-02-24T01:19:55.164Z,20.17
2023-02-24T01:22:23.826Z,22.67
2023-02-24T01:24:52.019Z,21.15
2023-02-24T01:27:21.232Z,23.27
2023-02-24T01:29:49.788Z,22.15
2023-02-24T01:32:20.127Z,24.48
2023-02-24T01:34:48.870Z,23.27
2023-02-24T01:37:16.925Z,23.95
2023-02-24T01:39:45.775Z,21.92
2023-02-24T01:42:19.192Z,22.65
2023-02-24T01:45:13.398Z,21.50
2023-02-24T01:47:42.270Z,22.98
2023-02-24T01:50:14.937Z,22.02
2023-02-24T01:52:45.450Z,21.63
2023-02-24T01:55:20.173Z,20.58
2023-02-24T01:57:50.011Z,21.00
2023-02-24T02:00:32.821Z,19.80
2023-02-24T02:03:08.021Z,22.00
2023-02-24T02:05:36.215Z,20.25
2023-02-24T02:08:04.566Z,22.27
2023-02-24T02:10:33.896Z,19.27
2023-02-24T02:13:04.550Z,20.17
2023-02-24T02:15:41.481Z,21.50
2023-02-24T02:18:14.817Z,21.30
2023-02-24T02:21:04.589Z,21.75
2023-02-24T02:23:53.924Z,19.55
2023-02-24T02:27:00.592Z,21.67
2023-02-24T02:30:04.559Z,22.33
2023-02-24T02:33:21.521Z,21.42
2023-02-24T02:36:00.629Z,22.35
2023-02-24T02:38:34.858Z,20.77
2023-02-24T02:41:11.240Z,22.90
2023-02-24T02:43:43.646Z,21.00
2023-02-24T02:46:17.639Z,19.88
2023-02-24T02:48:50.719Z,20.52
2023-02-24T02:51:27.461Z,21.02
2023-02-24T02:54:01.744Z,21.08
2023-02-24T02:56:34.923Z,21.30
2023-02-24T02:59:05.346Z,20.60
2023-02-24T03:01:38.999Z,19.15
2023-02-24T03:04:09.427Z,19.05
2023-02-24T03:06:44.353Z,20.95
2023-02-24T03:09:19.467Z,20.63
2023-02-24T03:11:52.791Z,21.65
2023-02-24T03:14:27.267Z,19.63
2023-02-24T03:16:56.949Z,21.55
2023-02-24T03:19:32.100Z,21.52
2023-02-24T03:22:08.436Z,23.13
2023-02-24T03:24:39.067Z,20.75
2023-02-24T03:27:11.542Z,22.58
2023-02-24T03:29:45.784Z,20.40
2023-02-24T03:32:17.237Z,22.65
2023-02-24T03:34:53.448Z,22.23
2023-02-24T03:37:26.693Z,19.98
2023-02-24T03:39:57.574Z,22.20
2023-02-24T03:42:29.611Z,23.33
2023-02-24T03:44:58.685Z,21.00
2023-02-24T03:47:27.578Z,20.73
2023-02-24T03:49:55.413Z,19.13
2023-02-24T03:52:35.695Z,20.92
2023-02-24T03:55:19.471Z,19.50
2023-02-24T03:58:00.234Z,20.40
2023-02-24T04:00:35.324Z,20.75
2023-02-24T04:03:10.028Z,20.75
2023-02-24T04:05:47.645Z,19.90
2023-02-24T04:08:20.209Z,21.25
2023-02-24T04:10:55.690Z,23.38
2023-02-24T04:13:35.379Z,21.63
2023-02-24T04:16:11.265Z,21.95
2023-02-24T04:18:41.705Z,21.33
2023-02-24T04:21:09.555Z,21.55
2023-02-24T04:23:43.273Z,21.48
2023-02-24T04:26:13.737Z,22.83
2023-02-24T04:28:43.926Z,22.35
2023-02-24T04:31:17.523Z,23.83
2023-02-24T04:33:50.268Z,21.60
2023-02-24T04:36:18.637Z,23.90
2023-02-24T04:38:48.290Z,22.95
2023-02-24T04:41:21.216Z,26.80
2023-02-24T04:43:50.845Z,28.88
2023-02-24T04:46:18.976Z,27.48
2023-02-24T04:48:47.108Z,27.15
2023-02-24T04:51:14.939Z,29.60
2023-02-24T04:53:42.892Z,28.95
2023-02-24T04:56:12.252Z,28.13
2023-02-24T04:58:41.577Z,29.48
2023-02-24T05:01:12.654Z,28.70
2023-02-24T05:03:43.350Z,28.08
2023-02-24T05:06:16.150Z,28.95
2023-02-24T05:08:45.003Z,27.33
2023-02-24T05:11:17.077Z,28.30
2023-02-24T05:13:46.899Z,29.08
2023-02-24T05:16:17.229Z,27.30
2023-02-24T05:18:45.740Z,26.50
2023-02-24T05:21:34.008Z,28.35
2023-02-24T05:24:06.814Z,31.23
2023-02-24T05:26:38.597Z,31.08
2023-02-24T05:29:07.904Z,27.35
2023-02-24T05:31:37.166Z,27.50
2023-02-24T05:34:07.668Z,26.55
2023-02-24T05:36:40.197Z,26.15
2023-02-24T05:39:10.662Z,25.75
2023-02-24T05:41:42.088Z,25.58
2023-02-24T05:44:13.480Z,25.02
2023-02-24T05:46:44.642Z,24.75
2023-02-24T05:49:15.500Z,26.48
2023-02-24T05:51:54.681Z,27.17
2023-02-24T05:54:25.966Z,25.95
2023-02-24T05:56:56.989Z,26.52
2023-02-24T05:59:25.461Z,26.25
2023-02-24T06:01:54.114Z,25.38
2023-02-24T06:04:39.347Z,25.60
2023-02-24T06:07:13.606Z,24.50
2023-02-24T06:09:42.947Z,24.50
2023-02-24T06:12:14.603Z,25.55
2023-02-24T06:14:42.617Z,25.67
2023-02-24T06:17:10.791Z,26.98
2023-02-24T06:19:41.250Z,28.75
2023-02-24T06:22:13.147Z,28.77
2023-02-24T06:24:44.200Z,32.40
2023-02-24T06:27:17.913Z,27.52
2023-02-24T06:29:46.557Z,25.83
2023-02-24T06:32:14.578Z,26.50
2023-02-24T06:34:42.490Z,28.58
2023-02-24T06:37:14.373Z,27.70
2023-02-24T06:39:42.979Z,26.65
2023-02-24T06:42:13.721Z,27.95
2023-02-24T06:44:43.054Z,26.38
2023-02-24T06:47:14.197Z,26.92
2023-02-24T06:49:42.919Z,26.13
2023-02-24T06:52:11.089Z,28.58
2023-02-24T06:54:39.397Z,30.88
2023-02-24T06:57:09.908Z,27.88
2023-02-24T06:59:40.050Z,30.20
2023-02-24T07:02:08.147Z,29.55
2023-02-24T07:04:43.736Z,30.30
2023-02-24T07:07:14.400Z,28.10
2023-02-24T07:09:44.032Z,28.67
2023-02-24T07:12:12.714Z,27.52
2023-02-24T07:14:42.358Z,28.00
2023-02-24T07:17:10.392Z,27.75
2023-02-24T07:19:38.343Z,28.13
2023-02-24T07:22:06.151Z,28.52
2023-02-24T07:24:37.098Z,27.33
2023-02-24T07:27:06.948Z,27.40
2023-02-24T07:29:37.581Z,28.10
2023-02-24T07:32:09.537Z,28.38
2023-02-24T07:34:40.016Z,28.67
2023-02-24T07:37:08.815Z,27.58
2023-02-24T07:39:37.868Z,30.00
2023-02-24T07:42:08.199Z,29.42
2023-02-24T07:44:35.995Z,28.25
2023-02-24T07:47:08.009Z,27.15
2023-02-24T07:49:39.219Z,26.10
2023-02-24T07:52:08.196Z,28.35
2023-02-24T07:54:36.306Z,29.63
2023-02-24T07:57:04.324Z,30.25
2023-02-24T07:59:33.929Z,28.48
2023-02-24T08:02:04.853Z,28.10
2023-02-24T08:04:33.973Z,29.65
2023-02-24T08:07:04.234Z,29.75
2023-02-24T08:10:08.995Z,28.13
2023-02-24T08:12:42.825Z,28.50
2023-02-24T08:15:18.237Z,28.63
2023-02-24T08:17:47.435Z,27.98
2023-02-24T08:20:26.052Z,26.83
2023-02-24T08:22:56.077Z,27.33
2023-02-24T08:25:25.875Z,27.60
2023-02-24T08:28:08.309Z,24.92
2023-02-24T08:30:40.160Z,26.88
2023-02-24T08:33:10.475Z,28.13
2023-02-24T08:35:44.803Z,27.95
2023-02-24T08:38:17.052Z,27.50
2023-02-24T08:40:52.374Z,25.80
2023-02-24T08:43:33.050Z,20.97
2023-02-24T08:46:04.625Z,20.13
2023-02-24T08:48:38.332Z,18.70
2023-02-24T08:51:10.912Z,18.70
2023-02-24T08:53:41.490Z,16.97
2023-02-24T08:56:11.807Z,18.40
2023-02-24T08:58:47.027Z,17.23
2023-02-24T09:01:24.360Z,17.53
2023-02-24T09:03:55.234Z,16.10
2023-02-24T09:06:35.430Z,18.40
2023-02-24T09:09:21.561Z,16.70
2023-02-24T09:11:55.817Z,14.33
2023-02-24T09:14:28.834Z,16.00
2023-02-24T09:17:07.282Z,15.10
2023-02-24T09:19:58.230Z,15.00
2023-02-24T09:22:41.061Z,15.52
2023-02-24T09:25:25.857Z,15.23
2023-02-24T09:27:56.965Z,14.93
2023-02-24T09:30:50.964Z,14.50
2023-02-24T09:33:22.517Z,12.90
2023-02-24T09:36:10.641Z,12.50
2023-02-24T09:38:57.600Z,12.53
2023-02-24T09:41:33.492Z,11.77
2023-02-24T09:44:07.383Z,10.70
2023-02-24T09:46:42.299Z,11.23
2023-02-24T09:49:17.924Z,16.80
2023-02-24T09:51:46.163Z,16.80
2023-02-24T09:54:17.765Z,14.90
2023-02-24T09:57:08.354Z,16.67
2023-02-24T10:00:01.030Z,13.27
2023-02-24T10:02:44.546Z,13.30
2023-02-24T10:05:27.386Z,12.30
2023-02-24T10:07:57.560Z,14.30
2023-02-24T10:10:29.034Z,13.20
2023-02-24T10:13:13.202Z,11.77
2023-02-24T10:15:59.342Z,12.57
2023-02-24T10:18:34.190Z,10.90
2023-02-24T10:21:16.710Z,8.63
2023-02-24T10:24:05.674Z,9.40
2023-02-24T10:26:54.473Z,13.20
2023-02-24T10:29:39.002Z,15.00
2023-02-24T10:32:23.564Z,14.10
2023-02-24T10:34:52.036Z,15.57
2023-02-24T10:37:28.760Z,14.13
2023-02-24T10:39:59.269Z,14.50
2023-02-24T10:42:31.735Z,13.25
2023-02-24T10:45:18.710Z,13.10
2023-02-24T10:47:56.579Z,13.48
2023-02-24T10:50:31.970Z,13.52
2023-02-24T10:53:34.515Z,11.87
2023-02-24T10:56:23.572Z,11.38
2023-02-24T10:59:20.553Z,12.43
2023-02-24T11:02:01.132Z,12.27
2023-02-24T11:04:53.795Z,11.37
2023-02-24T11:07:43.828Z,12.47
2023-02-24T11:10:14.944Z,15.03
2023-02-24T11:13:20.188Z,17.00
2023-02-24T11:16:16.195Z,19.30
2023-02-24T11:18:50.163Z,19.17
2023-02-24T11:21:18.854Z,19.92
2023-02-24T11:23:50.236Z,18.80
2023-02-24T11:26:21.755Z,18.53
2023-02-24T11:29:06.736Z,20.25
2023-02-24T11:31:51.954Z,17.20
2023-02-24T11:34:31.252Z,17.45
2023-02-24T11:37:10.556Z,19.00
2023-02-24T11:39:52.818Z,18.90
2023-02-24T11:42:24.469Z,18.03
2023-02-24T11:44:58.238Z,15.83
2023-02-24T11:47:32.197Z,16.93
2023-02-24T11:50:15.365Z,15.93
2023-02-24T11:52:47.067Z,16.70
2023-02-24T11:55:27.382Z,16.65
2023-02-24T11:58:01.412Z,18.00
2023-02-24T12:00:33.104Z,17.00
2023-02-24T12:03:09.475Z,15.83
2023-02-24T12:05:42.196Z,17.10
2023-02-24T12:08:17.436Z,15.33
2023-02-24T12:10:51.051Z,14.17
2023-02-24T12:13:25.709Z,13.30
2023-02-24T12:16:00.970Z,13.10
2023-02-24T12:18:34.501Z,12.17
2023-02-24T12:21:08.579Z,13.20
2023-02-24T12:23:39.414Z,11.47
2023-02-24T12:26:18.793Z,12.33
2023-02-24T12:29:06.095Z,10.87
2023-02-24T12:31:41.573Z,10.33
2023-02-24T12:34:16.249Z,11.17
2023-02-24T12:37:08.383Z,10.70
2023-02-24T12:39:44.297Z,8.10
2023-02-24T12:42:21.995Z,8.90
2023-02-24T12:44:59.042Z,8.60
2023-02-24T12:47:36.947Z,7.80
2023-02-24T12:50:22.507Z,8.27
2023-02-24T12:53:00.763Z,7.30
2023-02-24T12:55:34.200Z,7.37
2023-02-24T12:58:12.032Z,7.30
2023-02-24T13:00:49.161Z,7.40
2023-02-24T13:03:32.596Z,6.80
2023-02-24T13:06:07.434Z,6.67
2023-02-24T13:08:45.565Z,6.43
2023-02-24T13:11:22.002Z,6.20
2023-02-24T13:13:57.909Z,6.00
2023-02-24T13:16:30.627Z,7.33
2023-02-24T13:19:19.402Z,6.87
2023-02-24T13:21:57.279Z,5.60
2023-02-24T13:24:27.603Z,7.47
2023-02-24T13:27:06.290Z,7.30
2023-02-24T13:29:44.761Z,7.23
2023-02-24T13:32:26.581Z,7.37
2023-02-24T13:34:54.331Z,6.30
2023-02-24T13:37:29.558Z,7.80
2023-02-24T13:39:58.836Z,7.20
2023-02-24T13:42:29.138Z,7.47
2023-02-24T13:45:06.447Z,7.20
2023-02-24T13:48:01.840Z,7.47
2023-02-24T13:50:37.205Z,7.77
2023-02-24T13:53:35.146Z,8.17
2023-02-24T13:56:30.442Z,7.30
2023-02-24T13:59:22.363Z,6.63
2023-02-24T14:01:52.224Z,5.90
2023-02-24T14:04:26.833Z,6.40
2023-02-24T14:06:58.968Z,8.70
2023-02-24T14:09:31.805Z,7.33
2023-02-24T14:12:04.226Z,10.17
2023-02-24T14:14:32.700Z,13.90
2023-02-24T14:17:00.543Z,12.77
2023-02-24T14:19:28.332Z,12.80
2023-02-24T14:22:00.039Z,14.17
2023-02-24T14:24:29.158Z,11.43
2023-02-24T14:26:59.906Z,12.13
2023-02-24T14:29:32.775Z,11.83
2023-02-24T14:32:01.507Z,13.00
2023-02-24T14:34:34.021Z,13.10
2023-02-24T14:37:04.709Z,13.33
2023-02-24T14:39:34.297Z,13.17
2023-02-24T14:42:13.020Z,11.50
2023-02-24T14:44:45.541Z,10.10
2023-02-24T14:47:15.349Z,10.20
2023-02-24T14:49:53.104Z,11.53
2023-02-24T14:52:30.020Z,11.30
2023-02-24T14:55:03.309Z,10.93
2023-02-24T14:57:34.995Z,9.70
2023-02-24T15:00:11.547Z,10.20
2023-02-24T15:02:44.035Z,9.20
2023-02-24T15:05:12.727Z,7.93
2023-02-24T15:07:44.801Z,7.87
2023-02-24T15:10:21.174Z,7.97
2023-02-24T15:12:52.997Z,7.50
2023-02-24T15:15:24.854Z,8.00
2023-02-24T15:17:56.198Z,8.37
2023-02-24T15:20:33.491Z,9.37
2023-02-24T15:23:01.486Z,9.93
2023-02-24T15:25:42.383Z,10.70
2023-02-24T15:28:24.293Z,10.93
2023-02-24T15:31:01.381Z,10.70
2023-02-24T15:33:35.271Z,10.50
2023-02-24T15:36:09.716Z,10.30
2023-02-24T15:38:39.397Z,10.47
2023-02-24T15:41:10.083Z,9.35
2023-02-24T15:43:40.262Z,9.63
2023-02-24T15:46:35.296Z,10.03
2023-02-24T15:49:05.458Z,8.07
2023-02-24T15:51:39.798Z,10.27
2023-02-24T15:54:12.514Z,8.57
2023-02-24T15:56:42.434Z,7.77
2023-02-24T15:59:15.156Z,8.80
2023-02-24T16:01:44.883Z,7.25
2023-02-24T16:04:12.621Z,7.20
2023-02-24T16:06:42.536Z,7.80
2023-02-24T16:09:15.744Z,6.35
2023-02-24T16:11:47.833Z,8.25
2023-02-24T16:14:18.237Z,7.03
2023-02-24T16:16:47.823Z,8.63
2023-02-24T16:19:17.477Z,9.38
2023-02-24T16:21:45.430Z,8.30
2023-02-24T16:24:13.174Z,11.30
2023-02-24T16:26:41.905Z,11.23
2023-02-24T16:29:15.214Z,10.48
2023-02-24T16:31:43.290Z,9.35
2023-02-24T16:34:16.080Z,10.10
2023-02-24T16:36:44.653Z,9.30
2023-02-24T16:39:13.948Z,10.02
2023-02-24T16:41:42.114Z,10.73
2023-02-24T16:44:10.647Z,10.00
2023-02-24T16:46:41.294Z,10.77
2023-02-24T16:49:11.826Z,8.70
2023-02-24T16:51:41.043Z,10.32
2023-02-24T16:54:08.851Z,9.60
2023-02-24T16:56:36.684Z,10.07
2023-02-24T16:59:04.554Z,10.18
2023-02-24T17:01:33.196Z,10.82
2023-02-24T17:04:01.161Z,10.98
2023-02-24T17:06:29.248Z,10.43
2023-02-24T17:08:58.414Z,11.10
2023-02-24T17:11:28.416Z,10.30
2023-02-24T17:13:56.135Z,11.27
2023-02-24T17:16:24.227Z,10.55
2023-02-24T17:18:52.223Z,11.73
2023-02-24T17:21:20.023Z,13.10
2023-02-24T17:23:47.799Z,12.88
2023-02-24T17:26:17.372Z,11.68
2023-02-24T17:28:45.416Z,11.43
2023-02-24T17:31:13.288Z,10.70
2023-02-24T17:33:41.514Z,11.57
2023-02-24T17:36:09.498Z,11.07
2023-02-24T17:38:37.329Z,10.23
2023-02-24T17:41:05.468Z,10.35
2023-02-24T17:43:34.563Z,11.18
2023-02-24T17:46:05.165Z,10.50
2023-02-24T17:48:35.170Z,10.48
2023-02-24T17:51:02.910Z,8.93
2023-02-24T17:53:31.327Z,9.77
2023-02-24T17:56:03.732Z,8.57
2023-02-24T17:58:31.970Z,9.07
2023-02-24T18:01:02.360Z,9.10
2023-02-24T18:03:30.877Z,8.23
2023-02-24T18:06:00.536Z,7.97
2023-02-24T18:08:28.470Z,6.32
2023-02-24T18:10:56.152Z,6.90
2023-02-24T18:13:24.071Z,6.00
2023-02-24T18:15:51.923Z,6.18
2023-02-24T18:18:21.283Z,5.15
2023-02-24T18:20:49.207Z,5.65
2023-02-24T18:23:17.355Z,5.90
2023-02-24T18:25:45.426Z,5.88
2023-02-24T18:28:13.187Z,5.38
2023-02-24T18:30:41.245Z,5.05
2023-02-24T18:33:09.229Z,4.93
2023-02-24T18:35:38.963Z,6.20
2023-02-24T18:38:06.925Z,4.25
2023-02-24T18:40:34.858Z,4.10
2023-02-24T18:43:02.618Z,3.90
2023-02-24T18:45:31.842Z,4.20
2023-02-24T18:48:01.881Z,5.28
2023-02-24T18:50:29.625Z,3.35
2023-02-24T18:52:58.906Z,3.85
2023-02-24T18:55:26.634Z,4.03
2023-02-24T18:57:54.335Z,3.60
2023-02-24T19:00:22.596Z,3.83
2023-02-24T19:02:50.426Z,3.45
2023-02-24T19:05:18.431Z,3.45
2023-02-24T19:07:46.252Z,4.85
2023-02-24T19:10:15.572Z,4.93
2023-02-24T19:12:43.208Z,5.22
2023-02-24T19:15:11.252Z,5.57
2023-02-24T19:17:39.252Z,5.97
2023-02-24T19:20:08.683Z,6.82
2023-02-24T19:22:36.540Z,8.15
2023-02-24T19:25:04.886Z,8.82
2023-02-24T19:27:34.100Z,9.02
2023-02-24T19:30:01.968Z,9.80
2023-02-24T19:32:30.202Z,10.27
2023-02-24T19:34:58.111Z,9.40
2023-02-24T19:37:26.570Z,12.00
2023-02-24T19:39:54.984Z,15.55
2023-02-24T19:42:23.056Z,11.40
2023-02-24T19:44:52.772Z,11.57
2023-02-24T19:47:20.587Z,11.40
2023-02-24T19:49:48.551Z,11.35
2023-02-24T19:52:16.435Z,12.27
2023-02-24T19:54:44.135Z,12.15
2023-02-24T19:57:11.969Z,12.57
2023-02-24T19:59:40.419Z,12.30
2023-02-24T20:02:11.036Z,11.80
2023-02-24T20:04:38.842Z,13.30
2023-02-24T20:07:06.537Z,11.85
2023-02-24T20:09:34.256Z,13.45
2023-02-24T20:12:02.288Z,13.93
2023-02-24T20:14:30.728Z,13.23
2023-02-24T20:16:58.515Z,13.73
2023-02-24T20:19:27.754Z,12.05
2023-02-24T20:21:55.494Z,14.55
2023-02-24T20:24:23.290Z,12.13
2023-02-24T20:26:51.259Z,12.30
2023-02-24T20:29:21.706Z,14.35
2023-02-24T20:31:50.134Z,11.85
2023-02-24T20:34:18.287Z,13.20
2023-02-24T20:36:47.350Z,12.38
2023-02-24T20:39:15.369Z,14.18
2023-02-24T20:41:43.939Z,13.07
2023-02-24T20:44:12.822Z,12.82
2023-02-24T20:46:40.719Z,12.75
2023-02-24T20:49:10.141Z,12.90
2023-02-24T20:51:38.931Z,13.35
2023-02-24T20:54:09.379Z,12.95
2023-02-24T20:56:39.059Z,13.02
2023-02-24T20:59:08.894Z,12.23
2023-02-24T21:01:37.753Z,12.77
2023-02-24T21:04:06.376Z,13.27
2023-02-24T21:06:34.683Z,12.23
2023-02-24T21:09:02.476Z,13.27
2023-02-24T21:11:31.664Z,13.75
2023-02-24T21:13:59.585Z,11.38
2023-02-24T21:16:28.254Z,11.75
2023-02-24T21:18:58.793Z,13.70
2023-02-24T21:21:26.769Z,11.05
2023-02-24T21:23:55.222Z,12.35
2023-02-24T21:26:26.642Z,11.00
2023-02-24T21:28:57.924Z,6.30
2023-02-24T21:31:28.177Z,5.22
2023-02-24T21:33:58.413Z,4.38
2023-02-24T21:36:28.990Z,4.55
2023-02-24T21:38:57.299Z,4.95
2023-02-24T21:41:25.504Z,5.30
2023-02-24T21:43:56.185Z,4.60
2023-02-24T21:46:28.116Z,4.90
2023-02-24T21:48:56.969Z,3.22
2023-02-24T21:51:26.102Z,4.03
2023-02-24T21:53:55.791Z,3.38
2023-02-24T21:56:25.980Z,3.40
2023-02-24T21:58:58.912Z,3.38
2023-02-24T22:01:29.318Z,3.22
2023-02-24T22:03:58.761Z,3.90
2023-02-24T22:06:31.324Z,4.05
2023-02-24T22:09:00.248Z,4.32
2023-02-24T22:11:28.715Z,4.15
2023-02-24T22:13:58.654Z,5.63
2023-02-24T22:16:27.226Z,5.20
2023-02-24T22:18:57.216Z,5.65
2023-02-24T22:21:27.319Z,4.75
2023-02-24T22:23:57.504Z,4.10
2023-02-24T22:26:25.743Z,4.15
2023-02-24T22:28:54.873Z,4.57
2023-02-24T22:31:26.165Z,4.35
2023-02-24T22:33:54.909Z,3.42
2023-02-24T22:36:25.445Z,4.30
2023-02-24T22:38:53.961Z,3.58
2023-02-24T22:41:24.374Z,4.43
2023-02-24T22:43:53.946Z,3.80
2023-02-24T22:46:26.609Z,3.85
2023-02-24T22:48:55.920Z,4.63
2023-02-24T22:51:24.968Z,4.63
2023-02-24T22:53:53.703Z,4.05
2023-02-24T22:56:23.200Z,4.75
2023-02-24T22:58:51.425Z,4.13
2023-02-24T23:01:21.966Z,3.45
2023-02-24T23:03:51.232Z,3.60
2023-02-24T23:06:21.598Z,4.13
2023-02-24T23:08:51.503Z,4.28
2023-02-24T23:11:21.734Z,5.07
2023-02-24T23:13:50.972Z,4.25
2023-02-24T23:16:21.850Z,4.63
2023-02-24T23:18:54.654Z,5.55
2023-02-24T23:21:25.262Z,4.28
2023-02-24T23:23:57.025Z,3.65
2023-02-24T23:26:29.561Z,4.82
2023-02-24T23:28:58.726Z,4.25
2023-02-24T23:31:27.171Z,4.47
2023-02-24T23:33:56.666Z,4.50
2023-02-24T23:36:25.557Z,4.45
2023-02-24T23:38:53.865Z,4.45
2023-02-24T23:41:22.117Z,4.00
2023-02-24T23:43:49.871Z,4.03
2023-02-24T23:46:17.770Z,4.47
2023-02-24T23:48:45.920Z,4.35
2023-02-24T23:51:17.249Z,4.35
2023-02-24T23:53:46.626Z,4.80
2023-02-24T23:56:16.949Z,4.60
2023-02-24T23:58:45.374Z,5.20
